Manitowoc, WI

12:05 PM CST on December 03, 2016 (GMT -0600)
Manitowoc County

Weather History for KMTW - May, 2013

Change the Weather History Date:

Tuesday, May 14, 2013

  Actual Average Record
Temperature  
Mean Temperature 52 °F -  
Max Temperature 62 °F 63 °F 87 °F (1977)
Min Temperature 42 °F 42 °F 34 °F (1971)
Degree Days  
Heating Degree Days 13    
Growing Degree Days 2 (Base 50)    
Moisture  
Dew Point 40 °F    
Average Humidity 68    
Maximum Humidity 87    
Minimum Humidity 55    
Precipitation  
Precipitation 0.00 in - - ()
Sea Level Pressure  
Sea Level Pressure 29.74 in    
Wind  
Wind Speed 12 mph (SE)    
Max Wind Speed 21 mph    
Max Gust Speed 30 mph    
Visibility 10 miles    
Events      
Averages and records for this station are not official NWS values.
T = Trace of Precipitation, MM = Missing Value Source: NWS Daily Summary

Daily Weather History Graph

Daily Weather History Graph

Search for Another Location

Airport or City:

Trip Planner

Search our weather history database for the weather conditions in past years. The results will help you decide how hot, cold, wet, or windy it might be!

Date:

Astronomy

May. 14, 2013 Rise Set
Actual Time 5:25 AM CDT 8:09 PM CDT
Civil Twilight 4:51 AM CDT 8:43 PM CDT
Nautical Twilight 4:09 AM CDT 9:25 PM CDT
Astronomical Twilight 3:20 AM CDT 10:14 PM CDT
Moon 9:04 AM CDT (5/14) 11:55 PM CDT (5/14)
Length of Visible Light 15h 51m
Length of Day
14h 44m
Waxing Crescent, 19% of the Moon is Illuminated
May 14
Waxing Crescent
May 17
First Quarter
May 24
Full
May 31
Last Quarter
Jun 8
New

Hourly Weather History & Observations

Time (CDT) Temp. Windchill Dew Point Humidity Pressure Visibility Wind Dir Wind Speed Gust Speed Precip Events Conditions
12:15 AM 42.8 °F 35.8 °F 30.2 °F 61% 29.96 in 10.0 mi SSE 13.8 mph 19.6 mph N/A   Overcast
12:35 AM 44.6 °F 37.8 °F 30.2 °F 57% 29.95 in 10.0 mi SSE 15.0 mph 23.0 mph N/A   Overcast
12:55 AM 44.6 °F 38.1 °F 30.2 °F 57% 29.94 in 10.0 mi SSE 13.8 mph 21.9 mph N/A   Overcast
1:15 AM 44.6 °F 37.8 °F 30.2 °F 57% 29.93 in 10.0 mi SSE 15.0 mph 19.6 mph N/A   Overcast
1:35 AM 42.8 °F 35.4 °F 30.2 °F 61% 29.92 in 10.0 mi SSE 15.0 mph 23.0 mph N/A   Overcast
1:55 AM 42.8 °F 36.2 °F 30.2 °F 61% 29.90 in 10.0 mi SSE 12.7 mph 20.7 mph N/A   Overcast
2:15 AM 42.8 °F 35.8 °F 32.0 °F 66% 29.89 in 10.0 mi SSE 13.8 mph - N/A   Scattered Clouds
2:35 AM 42.8 °F 35.4 °F 32.0 °F 66% 29.88 in 10.0 mi SSE 15.0 mph - N/A   Clear
2:55 AM 42.8 °F 35.1 °F 33.8 °F 70% 29.86 in 10.0 mi SSE 16.1 mph 19.6 mph N/A   Partly Cloudy
3:15 AM 42.8 °F 34.8 °F 33.8 °F 70% 29.84 in 10.0 mi SSE 17.3 mph 20.7 mph N/A   Mostly Cloudy
3:35 AM 44.6 °F 37.2 °F 33.8 °F 66% 29.83 in 10.0 mi SSE 17.3 mph 23.0 mph N/A   Overcast
3:55 AM 44.6 °F 37.4 °F 33.8 °F 66% 29.81 in 10.0 mi SSE 16.1 mph 25.3 mph N/A   Scattered Clouds
4:15 AM 44.6 °F 36.6 °F 33.8 °F 66% 29.80 in 10.0 mi SSE 19.6 mph 29.9 mph N/A   Partly Cloudy
4:35 AM 44.6 °F 36.4 °F 33.8 °F 66% 29.78 in 10.0 mi SSE 20.7 mph 28.8 mph N/A   Clear
4:55 AM 44.6 °F 36.6 °F 33.8 °F 66% 29.78 in 10.0 mi South 19.6 mph 27.6 mph N/A   Clear
5:15 AM 44.6 °F 37.4 °F 33.8 °F 66% 29.78 in 10.0 mi SSE 16.1 mph 25.3 mph N/A   Partly Cloudy
5:35 AM 44.6 °F 37.8 °F 35.6 °F 71% 29.78 in 10.0 mi SSE 15.0 mph - N/A   Partly Cloudy
5:55 AM 44.6 °F 38.4 °F 35.6 °F 71% 29.76 in 10.0 mi SSE 12.7 mph - N/A   Clear
6:15 AM 44.6 °F 38.8 °F 35.6 °F 71% 29.76 in 10.0 mi South 11.5 mph - N/A   Clear
6:35 AM 46.4 °F 41.9 °F 37.4 °F 71% 29.75 in 10.0 mi South 9.2 mph - N/A   Clear
6:55 AM 46.4 °F 43.5 °F 39.2 °F 76% 29.75 in 10.0 mi SSE 5.8 mph - N/A   Clear
7:15 AM 48.2 °F - 39.2 °F 71% 29.76 in 10.0 mi SSE 10.4 mph - N/A   Clear
7:35 AM 48.2 °F - 39.2 °F 71% 29.75 in 10.0 mi SSE 10.4 mph - N/A   Clear
7:55 AM 50.0 °F - 39.2 °F 66% 29.75 in 10.0 mi SSE 10.4 mph - N/A   Clear
8:15 AM 50.0 °F - 39.2 °F 66% 29.74 in 10.0 mi SE 8.1 mph - N/A   Clear
8:35 AM 51.8 °F - 39.2 °F 62% 29.74 in 10.0 mi SSE 6.9 mph - N/A   Clear
8:55 AM 51.8 °F - 41.0 °F 67% 29.73 in 10.0 mi SSE 6.9 mph - N/A   Clear
9:15 AM 53.6 °F - 41.0 °F 62% 29.72 in 10.0 mi SE 6.9 mph - N/A   Clear
9:35 AM 53.6 °F - 42.8 °F 67% 29.72 in 10.0 mi SE 4.6 mph - N/A   Clear
9:55 AM 55.4 °F - 42.8 °F 63% 29.72 in 10.0 mi SSE 3.5 mph - N/A   Clear
10:15 AM 55.4 °F - 42.8 °F 63% 29.74 in 10.0 mi East 6.9 mph - N/A   Clear
10:35 AM 55.4 °F - 42.8 °F 63% 29.75 in 10.0 mi East 6.9 mph - N/A   Clear
10:55 AM 55.4 °F - 44.6 °F 67% 29.75 in 10.0 mi East 8.1 mph - N/A   Clear
11:15 AM 55.4 °F - 44.6 °F 67% 29.76 in 10.0 mi East 9.2 mph - N/A   Clear
11:35 AM 57.2 °F - 44.6 °F 63% 29.76 in 10.0 mi East 6.9 mph - N/A   Clear
11:55 AM 59.0 °F - 44.6 °F 59% 29.76 in 10.0 mi SE 8.1 mph - N/A   Clear
12:15 PM 60.8 °F - 44.6 °F 55% 29.77 in 10.0 mi SE 5.8 mph - N/A   Clear
12:35 PM 60.8 °F - 46.4 °F 59% 29.78 in 10.0 mi SE 5.8 mph - N/A   Clear
12:55 PM 62.6 °F - 46.4 °F 55% 29.78 in 10.0 mi East 6.9 mph - N/A   Clear
1:15 PM 62.6 °F - 46.4 °F 55% 29.78 in 10.0 mi East 8.1 mph - N/A   Clear
1:35 PM 60.8 °F - 44.6 °F 55% 29.78 in 9.0 mi East 10.4 mph - N/A   Clear
1:55 PM 57.2 °F - 44.6 °F 63% 29.79 in 10.0 mi East 6.9 mph - N/A   Clear
2:15 PM 57.2 °F - 44.6 °F 63% 29.80 in 10.0 mi East 6.9 mph - N/A   Clear
2:35 PM 57.2 °F - 44.6 °F 63% 29.79 in 10.0 mi East 6.9 mph - N/A   Clear
2:55 PM 57.2 °F - 44.6 °F 63% 29.77 in 10.0 mi ESE 6.9 mph - N/A   Clear
3:15 PM 57.2 °F - 44.6 °F 63% 29.77 in 10.0 mi SE 6.9 mph - N/A   Clear
3:35 PM 57.2 °F - 44.6 °F 63% 29.73 in 10.0 mi ESE 10.4 mph - N/A   Clear
3:55 PM 55.4 °F - 42.8 °F 63% 29.73 in 10.0 mi SE 6.9 mph - N/A   Clear
4:15 PM 55.4 °F - 42.8 °F 63% 29.73 in 10.0 mi SSE 8.1 mph - N/A   Clear
4:35 PM 55.4 °F - 42.8 °F 63% 29.69 in 10.0 mi East 10.4 mph - N/A   Scattered Clouds
4:55 PM 53.6 °F - 44.6 °F 72% 29.71 in 10.0 mi East 8.1 mph - N/A   Partly Cloudy
5:15 PM 55.4 °F - 44.6 °F 67% 29.69 in 10.0 mi SE 12.7 mph - N/A   Mostly Cloudy
5:35 PM 55.4 °F - 44.6 °F 67% 29.68 in 10.0 mi SSE 10.4 mph - N/A   Scattered Clouds
5:55 PM 57.2 °F - 44.6 °F 63% 29.70 in 10.0 mi ESE 6.9 mph - N/A   Clear
6:15 PM 57.2 °F - 42.8 °F 59% 29.69 in 10.0 mi ESE 10.4 mph - N/A   Clear
6:35 PM 57.2 °F - 42.8 °F 59% 29.68 in 10.0 mi SE 11.5 mph - N/A   Clear
6:55 PM 55.4 °F - 42.8 °F 63% 29.67 in 10.0 mi SE 9.2 mph - N/A   Clear
7:15 PM 53.6 °F - 42.8 °F 67% 29.66 in 10.0 mi ESE 9.2 mph - N/A   Clear
7:35 PM 51.8 °F - 42.8 °F 71% 29.65 in 10.0 mi ESE 9.2 mph - N/A   Clear
7:55 PM 50.0 °F - 42.8 °F 76% 29.64 in 10.0 mi ESE 8.1 mph - N/A   Clear
8:15 PM 48.2 °F - 42.8 °F 82% 29.63 in 9.0 mi ESE 9.2 mph - N/A   Clear
8:35 PM 48.2 °F - 42.8 °F 82% 29.62 in 9.0 mi SE 9.2 mph - N/A   Clear
8:55 PM 48.2 °F - 42.8 °F 82% 29.61 in 10.0 mi SE 8.1 mph - N/A   Clear
9:15 PM 48.2 °F - 42.8 °F 82% 29.61 in 10.0 mi SE 9.2 mph - N/A   Clear
9:35 PM 48.2 °F - 42.8 °F 82% 29.60 in 10.0 mi SE 10.4 mph - N/A   Clear
9:55 PM 48.2 °F - 42.8 °F 82% 29.60 in 10.0 mi SE 8.1 mph - N/A   Clear
10:15 PM 46.4 °F 42.9 °F 41.0 °F 81% 29.59 in 10.0 mi ESE 6.9 mph - N/A   Clear
10:35 PM 46.4 °F 42.9 °F 42.8 °F 87% 29.57 in 8.0 mi ESE 6.9 mph - N/A   Clear
10:55 PM 46.4 °F 42.4 °F 42.8 °F 87% 29.55 in 9.0 mi SE 8.1 mph - N/A   Clear
11:15 PM 46.4 °F 42.9 °F 41.0 °F 81% 29.54 in 8.0 mi SE 6.9 mph - N/A   Clear
11:35 PM 46.4 °F 43.5 °F 42.8 °F 87% 29.53 in 9.0 mi SE 5.8 mph - N/A   Clear
11:55 PM 46.4 °F 42.9 °F 42.8 °F 87% 29.52 in 8.0 mi SSE 6.9 mph - N/A   Clear